createdAt,value
2019-05-07T00:05:02.878Z,3.0
2019-05-07T00:10:03.127Z,3.5
2019-05-07T00:15:04.714Z,3.7
2019-05-07T00:20:02.496Z,3.6
2019-05-07T00:25:03.325Z,3.8
2019-05-07T00:30:03.058Z,4.1
2019-05-07T00:40:02.966Z,4.1
2019-05-07T00:50:03.537Z,4.6
2019-05-07T00:55:03.146Z,4.8
2019-05-07T01:00:02.509Z,5.4
2019-05-07T01:15:03.170Z,4.9
2019-05-07T01:20:03.159Z,4.7
2019-05-07T01:25:02.512Z,4.4
2019-05-07T01:30:02.860Z,4.6
2019-05-07T01:35:02.686Z,4.9
2019-05-07T01:40:03.306Z,4.9
2019-05-07T01:45:02.646Z,5.3
2019-05-07T01:50:03.228Z,5.1
2019-05-07T01:55:03.461Z,5.4
2019-05-07T02:00:02.868Z,5.1
2019-05-07T02:05:03.367Z,5.6
2019-05-07T02:10:02.999Z,5.6
2019-05-07T02:15:03.018Z,5.4
2019-05-07T02:20:02.896Z,5.1
2019-05-07T02:25:03.519Z,5.1
2019-05-07T02:30:04.790Z,4.8
2019-05-07T02:35:04.598Z,4.8
2019-05-07T02:40:04.632Z,5.8
2019-05-07T02:45:04.588Z,6.4
2019-05-07T02:50:03.480Z,6.8
2019-05-07T02:55:04.458Z,7.0
2019-05-07T03:00:04.962Z,6.9
2019-05-07T03:05:05.682Z,6.5
2019-05-07T03:10:04.007Z,6.2
2019-05-07T03:15:04.888Z,6.1
2019-05-07T03:20:03.372Z,6.1
2019-05-07T03:25:03.712Z,5.7
2019-05-07T03:30:04.749Z,5.1
2019-05-07T03:35:07.900Z,4.7
2019-05-07T03:40:04.445Z,4.6
2019-05-07T03:45:04.051Z,4.4
2019-05-07T03:50:03.735Z,4.8
2019-05-07T03:55:04.105Z,5.2
2019-05-07T04:00:04.509Z,5.6
2019-05-07T04:05:04.591Z,5.7
2019-05-07T04:10:04.811Z,5.6
2019-05-07T04:15:03.903Z,5.6
2019-05-07T04:20:04.806Z,5.6
2019-05-07T04:30:04.119Z,5.6
2019-05-07T04:35:04.276Z,6.2
2019-05-07T04:40:03.560Z,6.2
2019-05-07T04:45:04.543Z,6.0
2019-05-07T04:50:04.128Z,5.6
2019-05-07T04:55:04.539Z,5.8
2019-05-07T05:00:03.943Z,5.3
2019-05-07T05:05:03.686Z,5.4
2019-05-07T05:15:02.388Z,6.2
2019-05-07T05:20:03.872Z,5.8
2019-05-07T05:25:02.708Z,6.0
2019-05-07T05:30:03.211Z,5.9
2019-05-07T05:35:02.777Z,5.5
2019-05-07T05:40:08.969Z,4.8
2019-05-07T05:45:02.428Z,4.9
2019-05-07T05:50:02.192Z,4.6
2019-05-07T05:55:02.771Z,3.9
2019-05-07T06:00:02.653Z,3.9
2019-05-07T06:05:02.416Z,4.5
2019-05-07T06:10:02.809Z,4.2
2019-05-07T06:15:02.047Z,4.2
2019-05-07T06:20:03.279Z,4.6
2019-05-07T06:25:02.689Z,4.6
2019-05-07T06:30:05.150Z,3.9
2019-05-07T06:35:03.296Z,3.5
2019-05-07T06:40:02.884Z,3.5
2019-05-07T06:45:03.109Z,3.6
2019-05-07T06:50:03.258Z,3.6
2019-05-07T06:55:03.495Z,3.5
2019-05-07T07:00:02.920Z,3.8
2019-05-07T07:05:03.111Z,3.8
2019-05-07T07:10:02.932Z,3.9
2019-05-07T07:15:02.996Z,4.1
2019-05-07T07:20:02.541Z,4.4
2019-05-07T07:25:06.386Z,4.5
2019-05-07T07:30:02.598Z,4.5
2019-05-07T07:35:02.680Z,4.2
2019-05-07T07:40:02.224Z,4.0
2019-05-07T07:45:03.198Z,4.0
2019-05-07T07:55:02.429Z,3.8
2019-05-07T08:00:02.879Z,3.8
2019-05-07T08:10:02.838Z,3.5
2019-05-07T08:20:02.756Z,3.8
2019-05-07T08:30:03.141Z,4.4
2019-05-07T08:35:02.624Z,4.6
2019-05-07T08:40:03.284Z,4.4
2019-05-07T08:45:03.231Z,4.0
2019-05-07T08:50:03.101Z,3.8
2019-05-07T08:55:02.394Z,3.6
2019-05-07T09:00:04.809Z,3.6
2019-05-07T09:05:03.223Z,3.6
2019-05-07T09:10:02.796Z,3.6
2019-05-07T09:15:02.472Z,4.1
2019-05-07T09:20:02.861Z,4.0
2019-05-07T09:25:03.281Z,3.8
2019-05-07T09:30:02.934Z,3.8
2019-05-07T09:40:03.220Z,3.3
2019-05-07T09:45:02.205Z,3.2
2019-05-07T09:50:08.850Z,3.1
2019-05-07T09:55:16.752Z,3.5
2019-05-07T10:00:02.533Z,3.8
2019-05-07T10:10:03.419Z,4.3
2019-05-07T10:15:03.269Z,4.0
2019-05-07T10:20:18.080Z,3.6
2019-05-07T10:25:03.167Z,3.4
2019-05-07T10:30:02.779Z,3.2
2019-05-07T10:35:02.454Z,3.0
2019-05-07T10:40:03.331Z,3.3
2019-05-07T10:45:03.275Z,3.1
2019-05-07T10:55:03.113Z,3.1
2019-05-07T11:00:03.345Z,2.9
2019-05-07T11:05:02.570Z,2.7
2019-05-07T11:10:02.176Z,3.0
2019-05-07T11:15:02.447Z,2.8
2019-05-07T11:20:00.933Z,2.8
2019-05-07T11:30:02.967Z,2.6
2019-05-07T11:35:03.283Z,2.3
2019-05-07T11:40:03.350Z,2.4
2019-05-07T11:45:02.454Z,2.6
2019-05-07T11:50:03.406Z,2.6
2019-05-07T12:00:03.067Z,2.6
2019-05-07T12:05:02.522Z,2.4
2019-05-07T12:10:05.145Z,2.2
2019-05-07T12:15:02.686Z,2.0
2019-05-07T12:20:02.617Z,2.6
2019-05-07T12:25:02.875Z,2.6
2019-05-07T12:30:02.006Z,2.8
2019-05-07T12:35:02.561Z,3.0
2019-05-07T12:40:02.111Z,3.2
2019-05-07T12:45:02.624Z,2.8
2019-05-07T12:50:02.254Z,3.0
2019-05-07T12:55:03.440Z,2.8
2019-05-07T13:00:02.369Z,2.8
2019-05-07T13:05:03.175Z,2.6
2019-05-07T13:10:02.856Z,2.5
2019-05-07T13:15:03.149Z,2.4
2019-05-07T13:20:02.090Z,2.6
2019-05-07T13:30:02.823Z,3.0
2019-05-07T13:35:02.985Z,3.2
2019-05-07T13:40:02.920Z,3.1
2019-05-07T13:45:03.059Z,2.9
2019-05-07T13:50:02.876Z,2.8
2019-05-07T13:55:01.002Z,2.7
2019-05-07T14:00:05.164Z,2.5
2019-05-07T14:05:01.042Z,2.4
2019-05-07T14:10:02.388Z,2.6
2019-05-07T14:15:02.384Z,2.4
2019-05-07T14:25:00.977Z,2.5
2019-05-07T14:30:03.004Z,2.6
2019-05-07T14:40:02.979Z,2.9
2019-05-07T14:45:01.048Z,2.9
2019-05-07T14:55:05.232Z,2.9
2019-05-07T15:00:03.489Z,3.0
2019-05-07T15:10:02.597Z,2.8
2019-05-07T15:15:02.473Z,2.7
2019-05-07T15:20:03.121Z,2.5
2019-05-07T15:25:03.123Z,2.4
2019-05-07T15:30:02.562Z,2.2
2019-05-07T15:40:02.741Z,2.7
2019-05-07T15:45:02.507Z,2.9
2019-05-07T15:50:00.968Z,2.7
2019-05-07T15:55:03.023Z,2.9
2019-05-07T16:00:02.409Z,3.1
2019-05-07T16:05:04.928Z,2.7
2019-05-07T16:10:02.053Z,2.7
2019-05-07T16:15:03.354Z,2.9
2019-05-07T16:20:03.349Z,2.9
2019-05-07T16:25:07.485Z,2.7
2019-05-07T16:30:00.952Z,2.8
2019-05-07T16:40:04.740Z,2.7
2019-05-07T16:45:03.144Z,2.7
2019-05-07T16:50:04.282Z,2.7
2019-05-07T16:55:03.334Z,2.8
2019-05-07T17:00:03.089Z,2.8
2019-05-07T17:05:03.273Z,2.7
2019-05-07T17:15:03.212Z,2.9
2019-05-07T17:30:03.106Z,2.8
2019-05-07T17:40:03.254Z,2.6
2019-05-07T17:45:03.273Z,2.6
2019-05-07T17:55:02.451Z,2.7
2019-05-07T18:00:02.516Z,2.5
2019-05-07T18:10:02.583Z,2.3
2019-05-07T18:15:02.520Z,2.2
2019-05-07T18:20:02.716Z,2.0
2019-05-07T18:25:02.076Z,2.2
2019-05-07T18:30:03.044Z,2.4
2019-05-07T18:35:02.585Z,2.7
2019-05-07T18:40:02.777Z,3.1
2019-05-07T18:45:02.397Z,3.4
2019-05-07T18:50:03.103Z,3.8
2019-05-07T18:55:02.971Z,4.2
2019-05-07T19:00:05.404Z,4.2
2019-05-07T19:05:02.978Z,4.0
2019-05-07T19:10:02.926Z,4.0
2019-05-07T19:15:03.143Z,4.6
2019-05-07T19:20:03.542Z,5.4
2019-05-07T19:25:03.252Z,5.5
2019-05-07T19:30:01.011Z,5.7
2019-05-07T19:35:01.062Z,5.8
2019-05-07T19:40:02.294Z,5.2
2019-05-07T19:45:02.933Z,4.1
2019-05-07T19:50:02.356Z,4.0
2019-05-07T19:55:05.001Z,4.2
2019-05-07T20:00:01.016Z,4.4
2019-05-07T20:05:03.713Z,4.5
2019-05-07T20:10:02.974Z,4.6
2019-05-07T20:15:02.977Z,4.7
2019-05-07T20:25:19.069Z,4.4
2019-05-07T20:30:03.347Z,4.2
2019-05-07T20:35:03.015Z,4.4
2019-05-07T20:40:03.278Z,5.1
2019-05-07T20:45:03.311Z,5.8
2019-05-07T20:50:01.020Z,5.8
2019-05-07T20:55:01.082Z,6.3
2019-05-07T21:00:03.031Z,6.3
2019-05-07T21:05:03.207Z,5.8
2019-05-07T21:10:02.321Z,5.3
2019-05-07T21:15:03.707Z,5.3
2019-05-07T21:20:01.023Z,5.4
2019-05-07T21:25:02.955Z,6.0
2019-05-07T21:30:02.691Z,6.1
2019-05-07T21:35:01.155Z,6.7
2019-05-07T21:40:02.704Z,6.7
2019-05-07T21:45:02.346Z,6.5
2019-05-07T21:50:03.221Z,6.1
2019-05-07T21:55:02.581Z,6.6
2019-05-07T22:00:02.415Z,6.6
2019-05-07T22:10:02.455Z,7.2
2019-05-07T22:15:04.659Z,7.4
2019-05-07T22:20:03.297Z,6.8
2019-05-07T22:25:05.446Z,6.8
2019-05-07T22:30:02.486Z,6.8
2019-05-07T22:35:03.076Z,6.6
2019-05-07T22:40:03.063Z,6.4
2019-05-07T22:45:03.052Z,7.1
2019-05-07T22:50:03.091Z,7.5
2019-05-07T22:55:01.225Z,8.0
2019-05-07T23:00:04.729Z,8.6
2019-05-07T23:05:03.172Z,8.8
2019-05-07T23:10:03.097Z,8.8
2019-05-07T23:15:02.963Z,8.0
2019-05-07T23:20:01.105Z,7.9
2019-05-07T23:25:01.234Z,7.5
2019-05-07T23:30:02.892Z,7.1
2019-05-07T23:35:02.299Z,7.5
2019-05-07T23:40:03.292Z,7.9
2019-05-07T23:45:02.307Z,8.1
2019-05-07T23:50:02.293Z,7.7
